Time;durP1;ratioP1;P1;durP2;ratioP2;P2;SDS_P1;SDS_P2;PMS_P1;PMS_P2;Temp;Humidity;BMP_temperature;BMP_pressure;BME280_temperature;BME280_humidity;BME280_pressure;Samples;Min_cycle;Max_cycle;Signal;HPM_P1;HPM_P2
2022/03/05 00:01:40;;;;;;;11.87;4.90;;;;;;;-2.77;77.92;100480.71;1773754;79;21005;-66
2022/03/05 00:04:07;;;;;;;17.20;6.20;;;;;;;-2.71;77.97;100483.38;1773918;79;20943;-65
2022/03/05 00:06:33;;;;;;;17.10;7.33;;;;;;;-2.71;77.99;100478.27;1774142;79;21221;-65
2022/03/05 00:09:00;;;;;;;21.27;7.93;;;;;;;-2.70;78.11;100476.14;1773396;79;21559;-66
2022/03/05 00:11:27;;;;;;;19.00;8.67;;;;;;;-2.68;78.19;100476.19;1771505;79;21089;-66
2022/03/05 00:13:53;;;;;;;17.87;6.53;;;;;;;-2.64;78.22;100476.25;1770746;78;20956;-66
2022/03/05 00:16:20;;;;;;;16.73;6.23;;;;;;;-2.59;78.29;100477.20;1775537;79;20876;-66
2022/03/05 00:18:47;;;;;;;17.35;7.70;;;;;;;-2.52;78.24;100480.33;1769160;79;20915;-66
2022/03/05 00:21:13;;;;;;;15.40;6.90;;;;;;;-2.45;78.10;100481.70;1765840;80;21006;-66
2022/03/05 00:23:40;;;;;;;19.12;6.70;;;;;;;-2.41;78.05;100488.58;1773497;79;21083;-66
2022/03/05 00:26:07;;;;;;;14.60;6.23;;;;;;;-2.37;78.11;100480.15;1774525;78;21488;-66
2022/03/05 00:28:33;;;;;;;15.13;6.13;;;;;;;-2.30;78.16;100476.84;1771543;79;21471;-66
2022/03/05 00:31:01;;;;;;;17.25;6.92;;;;;;;-2.21;78.32;100482.14;1775354;79;20914;-65
2022/03/05 00:33:27;;;;;;;14.80;7.05;;;;;;;-2.13;78.31;100480.56;1772430;79;21567;-66
2022/03/05 00:35:54;;;;;;;13.10;6.40;;;;;;;-2.07;78.21;100487.48;1774737;78;21042;-66
2022/03/05 00:38:21;;;;;;;11.40;6.22;;;;;;;-2.09;78.14;100490.00;1772414;78;20944;-65
2022/03/05 00:40:48;;;;;;;13.83;6.58;;;;;;;-2.10;78.16;100480.61;1772917;80;20915;-65
2022/03/05 00:43:14;;;;;;;11.65;5.20;;;;;;;-2.12;78.16;100481.42;1772895;80;20919;-65
2022/03/05 00:45:41;;;;;;;17.05;7.72;;;;;;;-2.11;78.18;100479.30;1775623;79;20984;-66
2022/03/05 00:48:08;;;;;;;16.43;7.30;;;;;;;-2.10;78.18;100485.73;1770694;78;21022;-66
2022/03/05 00:50:35;;;;;;;16.37;6.60;;;;;;;-2.12;78.14;100481.00;1774306;79;21499;-66
2022/03/05 00:53:02;;;;;;;17.62;6.42;;;;;;;-2.14;78.17;100482.66;1773659;80;20881;-66
2022/03/05 00:55:29;;;;;;;12.15;6.58;;;;;;;-2.12;78.22;100484.84;1771782;78;20920;-66
2022/03/05 00:57:55;;;;;;;17.17;6.87;;;;;;;-2.13;78.19;100483.12;1768729;79;20921;-66
2022/03/05 01:00:22;;;;;;;14.13;6.83;;;;;;;-2.13;78.21;100480.56;1773203;80;21200;-66
2022/03/05 01:02:49;;;;;;;14.65;6.12;;;;;;;-2.13;78.25;100478.01;1775185;80;20962;-65
2022/03/05 01:05:16;;;;;;;13.33;6.63;;;;;;;-2.13;78.35;100478.01;1774883;79;21460;-65
2022/03/05 01:07:42;;;;;;;13.33;5.37;;;;;;;-2.09;78.50;100484.88;1772153;79;20895;-66
2022/03/05 01:10:09;;;;;;;12.20;6.50;;;;;;;-2.06;78.38;100479.81;1770615;78;21513;-66
2022/03/05 01:12:36;;;;;;;12.58;5.20;;;;;;;-2.02;78.46;100476.88;1773883;79;21071;-66
2022/03/05 01:15:05;;;;;;;10.70;3.47;;;;;;;-1.98;78.48;100476.52;1773079;79;20894;-66
2022/03/05 01:17:32;;;;;;;10.95;4.97;;;;;;;-1.94;78.66;100479.14;1767814;78;20986;-66
2022/03/05 01:19:59;;;;;;;10.35;4.75;;;;;;;-1.89;78.65;100481.78;1772031;78;21480;-66
2022/03/05 01:22:26;;;;;;;11.17;5.23;;;;;;;-1.88;78.70;100480.50;1777315;79;20946;-66
2022/03/05 01:24:52;;;;;;;11.68;4.33;;;;;;;-1.85;78.65;100483.53;1775344;78;21086;-66
2022/03/05 01:27:21;;;;;;;10.78;4.53;;;;;;;-1.81;78.72;100485.31;1773082;79;20921;-66
2022/03/05 01:29:48;;;;;;;10.82;3.87;;;;;;;-1.75;78.76;100480.28;1772588;80;20876;-67
2022/03/05 01:32:15;;;;;;;8.80;4.10;;;;;;;-1.72;78.73;100485.45;1740340;80;21902;-66
2022/03/05 01:34:41;;;;;;;7.55;3.58;;;;;;;-1.65;78.80;100480.02;1771066;79;21555;-66
2022/03/05 01:37:08;;;;;;;6.97;2.87;;;;;;;-1.60;78.87;100485.64;1772001;78;21029;-66
2022/03/05 01:39:35;;;;;;;7.30;2.52;;;;;;;-1.53;78.88;100483.16;1774386;79;21709;-66
2022/03/05 01:42:02;;;;;;;6.05;2.92;;;;;;;-1.52;78.94;100482.31;1774082;79;20901;-66
2022/03/05 01:44:29;;;;;;;7.03;2.52;;;;;;;-1.51;78.87;100476.34;1773836;79;20876;-66
2022/03/05 01:46:55;;;;;;;5.60;2.20;;;;;;;-1.48;78.87;100491.78;1770320;80;20954;-65
2022/03/05 01:49:22;;;;;;;7.97;2.80;;;;;;;-1.47;78.90;100484.52;1773455;79;21212;-66
2022/03/05 01:51:49;;;;;;;6.83;2.07;;;;;;;-1.47;78.87;100489.22;1768570;80;20921;-66
2022/03/05 01:54:15;;;;;;;5.47;2.72;;;;;;;-1.49;78.86;100487.47;1771174;80;20927;-66
2022/03/05 01:56:43;;;;;;;8.50;2.40;;;;;;;-1.49;78.86;100492.59;1775143;79;20954;-66
2022/03/05 01:59:11;;;;;;;6.03;2.67;;;;;;;-1.52;78.89;100493.84;1765973;80;21050;-66
2022/03/05 02:01:38;;;;;;;4.92;2.33;;;;;;;-1.54;78.85;100489.99;1772978;79;21816;-66
2022/03/05 02:04:05;;;;;;;6.05;2.15;;;;;;;-1.56;78.90;100489.53;1770147;78;20940;-66
2022/03/05 02:06:32;;;;;;;;;;;;;;;-1.60;78.89;100492.05;1775210;78;21018;-66
2022/03/05 02:08:59;;;;;;;6.92;2.00;;;;;;;-1.65;78.88;100488.55;1770318;78;20145;-66
2022/03/05 02:11:26;;;;;;;4.62;1.70;;;;;;;-1.70;78.85;100488.90;1744168;80;20978;-66
2022/03/05 02:13:53;;;;;;;2.77;1.67;;;;;;;-1.73;78.86;100491.42;1776043;79;21237;-66
2022/03/05 02:16:21;;;;;;;3.25;1.35;;;;;;;-1.76;78.85;100491.37;1775535;80;21476;-66
2022/03/05 02:18:50;;;;;;;6.22;2.12;;;;;;;-1.76;78.84;100495.22;1774820;79;20921;-65
2022/03/05 02:21:17;;;;;;;4.12;1.90;;;;;;;-1.77;78.85;100492.19;1773759;79;20905;-66
2022/03/05 02:23:44;;;;;;;4.25;2.00;;;;;;;-1.79;78.82;100488.77;1770905;78;21105;-66
2022/03/05 02:26:11;;;;;;;3.92;1.77;;;;;;;-1.80;78.80;100481.91;1775045;78;21035;-66
2022/03/05 02:28:38;;;;;;;4.07;1.70;;;;;;;-1.82;78.83;100475.89;1774894;79;21471;-66
2022/03/05 02:31:05;;;;;;;4.45;1.47;;;;;;;-1.82;78.82;100478.45;1775222;79;20919;-65
2022/03/05 02:33:32;;;;;;;7.78;2.17;;;;;;;-1.82;78.83;100477.17;1774195;78;20907;-66
2022/03/05 02:35:59;;;;;;;8.28;2.00;;;;;;;-1.81;78.82;100475.08;1769171;78;20939;-66
2022/03/05 02:38:25;;;;;;;4.65;1.27;;;;;;;-1.81;78.82;100476.36;1775047;80;21003;-66
2022/03/05 02:40:52;;;;;;;5.60;1.00;;;;;;;-1.80;78.79;100478.06;1777026;79;20984;-66
2022/03/05 02:43:21;;;;;;;3.62;1.45;;;;;;;-1.81;78.82;100471.23;1770386;78;20915;-65
2022/03/05 02:45:49;;;;;;;3.33;1.30;;;;;;;-1.82;78.76;100473.34;1776549;78;21004;-66
2022/03/05 02:48:17;;;;;;;4.30;1.10;;;;;;;-1.82;78.78;100478.45;1769318;79;20986;-66
2022/03/05 02:50:46;;;;;;;6.65;1.80;;;;;;;-1.83;78.76;100480.16;1774848;78;22657;-66
2022/03/05 02:53:15;;;;;;;3.33;1.40;;;;;;;-1.84;78.77;100473.33;1767461;79;20980;-66
2022/03/05 02:55:43;;;;;;;3.25;1.22;;;;;;;-1.86;78.74;100476.28;1770810;78;21023;-66
2022/03/05 02:58:10;;;;;;;4.37;1.42;;;;;;;-1.86;78.70;100484.38;1769058;78;20928;-66
2022/03/05 03:00:36;;;;;;;2.30;0.90;;;;;;;-1.88;78.73;100484.34;1774880;80;21504;-66
2022/03/05 03:03:03;;;;;;;5.07;1.57;;;;;;;-1.90;78.72;100483.91;1773341;79;21095;-66
2022/03/05 03:05:30;;;;;;;2.95;1.37;;;;;;;-1.91;78.74;100480.89;1772118;79;20913;-66
2022/03/05 03:07:56;;;;;;;4.13;1.53;;;;;;;-1.91;78.75;100480.89;1772332;80;20852;-66
2022/03/05 03:10:23;;;;;;;4.12;1.22;;;;;;;-1.91;78.77;100482.16;1771324;78;20967;-66
2022/03/05 03:12:50;;;;;;;3.87;1.47;;;;;;;-1.92;78.74;100481.73;1769543;80;20986;-66
2022/03/05 03:15:17;;;;;;;3.30;1.10;;;;;;;-1.95;78.68;100482.55;1771951;79;21263;-65
2022/03/05 03:17:48;;;;;;;3.47;1.10;;;;;;;-1.97;78.72;100480.80;1771477;79;21640;-66
2022/03/05 03:20:24;;;;;;;1.77;0.90;;;;;;;-1.99;78.67;100472.22;1785966;79;20950;-66
2022/03/05 03:22:52;;;;;;;3.37;1.27;;;;;;;-2.01;78.73;100476.05;1797426;78;20961;-65
2022/03/05 03:25:18;;;;;;;;;;;;;;;-2.00;78.73;100475.63;1800618;79;21783;-66
2022/03/05 03:27:46;;;;;;;2.02;1.02;;;;;;;-1.99;78.75;100479.91;1797433;78;21081;-66
2022/03/05 03:30:14;;;;;;;2.45;0.95;;;;;;;-2.04;78.70;100479.42;1798164;79;20937;-66
2022/03/05 03:32:42;;;;;;;4.30;0.90;;;;;;;-2.05;78.69;100481.52;1770557;79;21419;-65
2022/03/05 03:35:10;;;;;;;7.35;1.35;;;;;;;-2.08;78.66;100484.03;1798326;78;20849;-65
2022/03/05 03:37:37;;;;;;;1.98;1.12;;;;;;;-2.09;78.65;100485.30;1798586;79;20944;-65
2022/03/05 03:40:08;;;;;;;2.70;1.10;;;;;;;-2.11;78.65;100482.70;1795286;78;21654;-65
2022/03/05 03:42:35;;;;;;;2.22;1.07;;;;;;;-2.13;78.55;100488.63;1796121;78;21490;-65
2022/03/05 03:45:04;;;;;;;6.90;0.98;;;;;;;-2.16;78.55;100488.16;1798295;78;20874;-66
2022/03/05 03:47:31;;;;;;;2.08;0.88;;;;;;;-2.23;78.50;100491.47;1798819;78;21462;-66
2022/03/05 03:49:57;;;;;;;4.58;0.80;;;;;;;-2.27;78.48;100499.91;1794131;78;20902;-66
2022/03/05 03:52:24;;;;;;;3.20;1.00;;;;;;;-2.31;78.48;100490.48;1796758;78;21041;-66
2022/03/05 03:54:51;;;;;;;2.93;1.07;;;;;;;-2.38;78.43;100493.75;1797431;79;21173;-66
2022/03/05 03:57:17;;;;;;;2.60;1.10;;;;;;;-2.42;78.43;100494.55;1793485;79;20886;-65
2022/03/05 03:59:46;;;;;;;5.78;1.30;;;;;;;-2.49;78.41;100491.88;1795927;78;20955;-65
2022/03/05 04:02:13;;;;;;;4.65;1.05;;;;;;;-2.53;78.41;100506.70;1796140;79;20933;-65
2022/03/05 04:04:41;;;;;;;3.47;1.32;;;;;;;-2.57;78.45;100496.00;1797375;79;21024;-65
2022/03/05 04:09:53;;;;;;;5.67;1.22;;;;;;;-2.65;78.44;100498.83;1789473;78;20910;-65
2022/03/05 04:12:19;;;;;;;1.85;0.90;;;;;;;-2.72;78.42;100502.97;1782981;79;20922;-65
2022/03/05 04:14:46;;;;;;;3.60;1.10;;;;;;;-2.76;78.44;100504.16;1777555;78;20875;-66
2022/03/05 04:17:12;;;;;;;1.52;0.80;;;;;;;-2.77;78.40;100505.00;1781222;79;21026;-65
2022/03/05 04:19:39;;;;;;;2.37;1.10;;;;;;;-2.81;78.44;100503.20;1787488;78;20990;-66
2022/03/05 04:22:06;;;;;;;3.05;1.15;;;;;;;-2.85;78.38;100511.66;1773501;80;20938;-66
2022/03/05 04:24:32;;;;;;;2.87;0.87;;;;;;;-2.90;78.42;100510.69;1782789;78;20926;-66
2022/03/05 04:26:59;;;;;;;5.23;0.83;;;;;;;-2.95;78.37;100511.45;1778059;78;21576;-65
2022/03/05 04:29:26;;;;;;;3.95;1.20;;;;;;;-2.99;78.49;100507.12;1766097;79;21937;-65
2022/03/05 04:31:53;;;;;;;7.47;1.40;;;;;;;-3.00;78.46;100514.73;1785316;80;20934;-66
2022/03/05 04:34:20;;;;;;;2.60;1.07;;;;;;;-3.00;78.48;100515.59;1783310;78;21212;-66
2022/03/05 04:36:46;;;;;;;4.67;1.22;;;;;;;-3.05;78.37;100524.00;1780428;79;20926;-65
2022/03/05 04:39:13;;;;;;;2.42;0.95;;;;;;;-3.08;78.45;100530.32;1781370;79;20895;-65
2022/03/05 04:41:40;;;;;;;4.00;1.22;;;;;;;-3.11;78.38;100529.84;1779825;78;21871;-65
2022/03/05 04:44:07;;;;;;;3.70;1.23;;;;;;;-3.14;78.41;100524.67;1785500;79;20878;-66
2022/03/05 04:46:34;;;;;;;;;;;;;;;-3.23;78.29;100527.04;1782182;79;20875;-65
2022/03/05 04:49:01;;;;;;;5.15;1.45;;;;;;;-3.31;78.29;100529.84;1757679;80;20171;-65
2022/03/05 04:51:28;;;;;;;5.00;1.95;;;;;;;-3.40;78.26;100530.50;1771711;80;20954;-65
2022/03/05 04:53:55;;;;;;;9.27;3.60;;;;;;;-3.46;78.31;100532.50;1780233;79;21106;-66
2022/03/05 04:56:22;;;;;;;7.35;3.20;;;;;;;-3.51;78.35;100532.81;1780508;80;20935;-65
2022/03/05 04:58:49;;;;;;;7.33;3.10;;;;;;;-3.56;78.48;100534.39;1780700;80;20950;-65
2022/03/05 05:01:15;;;;;;;4.43;2.47;;;;;;;-3.61;78.53;100536.00;1780155;80;20863;-65
2022/03/05 05:03:43;;;;;;;10.27;4.47;;;;;;;-3.65;78.57;100535.47;1779820;80;21444;-64
2022/03/05 05:06:09;;;;;;;13.53;4.33;;;;;;;-3.70;78.60;100537.90;1778488;80;21088;-67
2022/03/05 05:08:36;;;;;;;11.23;4.20;;;;;;;-3.77;78.55;100537.74;1781524;80;20891;-65
2022/03/05 05:11:03;;;;;;;7.67;3.67;;;;;;;-3.82;78.60;100537.20;1779961;80;20875;-65
2022/03/05 05:13:30;;;;;;;8.48;4.03;;;;;;;-3.87;78.94;100540.05;1778619;80;20966;-65
2022/03/05 05:15:56;;;;;;;7.78;3.80;;;;;;;-3.86;79.21;100534.56;1774153;80;20905;-65
2022/03/05 05:18:23;;;;;;;11.50;4.33;;;;;;;-3.85;79.11;100538.41;1778063;80;21680;-65
2022/03/05 05:20:50;;;;;;;9.30;4.47;;;;;;;-3.81;79.12;100541.89;1782983;79;20937;-65
2022/03/05 05:23:17;;;;;;;9.23;4.10;;;;;;;-3.76;79.14;100545.41;1782987;79;20908;-66
2022/03/05 05:25:44;;;;;;;8.25;3.83;;;;;;;-3.72;79.18;100551.48;1783475;79;21717;-65
2022/03/05 05:28:10;;;;;;;9.85;4.08;;;;;;;-3.68;79.16;100540.50;1785091;79;20963;-66
2022/03/05 05:30:37;;;;;;;8.50;4.33;;;;;;;-3.64;79.16;100542.28;1785157;78;21941;-65
2022/03/05 05:33:04;;;;;;;9.93;4.90;;;;;;;-3.59;79.19;100545.81;1783823;80;20966;-65
2022/03/05 05:35:31;;;;;;;11.50;4.85;;;;;;;-3.54;79.16;100544.23;1779587;80;20926;-65
2022/03/05 05:37:57;;;;;;;8.90;4.93;;;;;;;-3.49;79.15;100554.14;1782406;80;20924;-65
2022/03/05 05:40:24;;;;;;;9.03;4.67;;;;;;;-3.45;79.14;100549.54;1782429;80;20938;-65
2022/03/05 05:42:51;;;;;;;10.57;4.73;;;;;;;-3.39;79.16;100545.87;1783647;79;21750;-66
2022/03/05 05:45:18;;;;;;;10.37;5.13;;;;;;;-3.32;79.18;100548.55;1784540;78;21018;-67
2022/03/05 05:47:45;;;;;;;12.05;4.83;;;;;;;-3.28;79.23;100542.67;1780779;80;24217;-65
2022/03/05 05:50:11;;;;;;;10.23;4.23;;;;;;;-3.17;79.34;100548.45;1783069;80;20986;-66
2022/03/05 05:52:42;;;;;;;12.18;5.28;;;;;;;-3.06;79.32;100555.50;1783598;79;21033;-65
2022/03/05 05:55:09;;;;;;;9.30;4.90;;;;;;;-2.96;79.28;100548.06;1781487;80;21080;-65
2022/03/05 05:57:37;;;;;;;6.70;2.65;;;;;;;-2.88;79.21;100543.12;1782649;79;20902;-66
2022/03/05 06:00:06;;;;;;;5.58;1.80;;;;;;;-2.79;79.11;100547.55;1783845;79;20960;-66
2022/03/05 06:02:33;;;;;;;6.85;3.05;;;;;;;-2.68;79.14;100542.23;1784596;79;20932;-66
2022/03/05 06:05:00;;;;;;;7.03;1.60;;;;;;;-2.60;79.11;100540.69;1783871;80;21525;-66
2022/03/05 06:07:26;;;;;;;8.20;3.23;;;;;;;-2.50;79.04;100548.95;1784761;79;21004;-66
2022/03/05 06:09:55;;;;;;;7.30;3.58;;;;;;;-2.41;78.98;100548.69;1777169;80;21462;-66
2022/03/05 06:12:22;;;;;;;6.70;2.33;;;;;;;-2.36;78.99;100550.92;1783850;80;20942;-66
2022/03/05 06:14:49;;;;;;;5.47;2.20;;;;;;;-2.30;78.79;100548.46;1784877;79;20926;-66
2022/03/05 06:17:19;;;;;;;3.45;1.92;;;;;;;-2.25;78.79;100546.86;1786322;80;20963;-66
2022/03/05 06:19:48;;;;;;;5.97;3.40;;;;;;;-2.18;78.55;100547.42;1786236;79;21460;-65
2022/03/05 06:22:17;;;;;;;8.10;4.03;;;;;;;-2.22;78.29;100551.17;1785394;79;20938;-66
2022/03/05 06:24:46;;;;;;;5.58;2.47;;;;;;;-2.24;78.47;100551.16;1788977;79;20931;-66
2022/03/05 06:27:20;;;;;;;6.55;2.65;;;;;;;-2.21;78.31;100543.53;1783355;79;20984;-66
2022/03/05 06:29:50;;;;;;;6.75;3.75;;;;;;;-2.13;78.55;100550.93;1782231;80;21457;-66
2022/03/05 06:32:17;;;;;;;9.48;5.10;;;;;;;-1.98;78.66;100553.30;1784142;79;21763;-66
2022/03/05 06:34:44;;;;;;;13.90;4.80;;;;;;;-1.84;78.83;100556.53;1782931;79;21125;-67
2022/03/05 06:37:11;;;;;;;;;;;;;;;-1.18;79.47;100560.48;1782941;79;21405;-68
2022/03/05 06:39:38;;;;;;;13.07;3.40;;;;;;;-0.71;78.49;100557.69;1757697;80;20151;-65
2022/03/05 06:42:05;;;;;;;5.83;3.33;;;;;;;-0.69;77.10;100559.42;1779256;80;21224;-66
2022/03/05 06:44:35;;;;;;;6.75;2.87;;;;;;;-0.73;77.25;100574.35;1783374;79;21039;-66
2022/03/05 06:47:04;;;;;;;6.58;3.83;;;;;;;-0.78;77.31;100569.58;1784567;80;20914;-66
2022/03/05 06:49:30;;;;;;;9.73;5.20;;;;;;;-0.86;76.41;100576.31;1782652;79;20968;-66
2022/03/05 06:51:58;;;;;;;14.10;7.72;;;;;;;-1.00;77.07;100571.44;1781587;80;21439;-66
2022/03/05 06:54:25;;;;;;;19.30;8.60;;;;;;;-1.06;77.46;100581.61;1785920;80;20907;-66
2022/03/05 06:56:52;;;;;;;12.95;7.17;;;;;;;-1.07;77.55;100583.71;1786548;80;21454;-64
2022/03/05 06:59:19;;;;;;;17.10;9.93;;;;;;;-1.08;77.45;100579.44;1785049;79;20962;-66
2022/03/05 07:01:46;;;;;;;13.05;8.60;;;;;;;-1.16;76.90;100574.20;1783066;80;20903;-65
2022/03/05 07:04:13;;;;;;;12.40;8.25;;;;;;;-1.26;76.92;100586.03;1754441;80;20930;-65
2022/03/05 07:06:40;;;;;;;20.53;10.57;;;;;;;-1.33;77.28;100585.48;1783454;80;20938;-66
2022/03/05 07:09:07;;;;;;;20.17;10.83;;;;;;;-1.33;77.53;100585.91;1782888;80;22064;-66
2022/03/05 07:11:34;;;;;;;22.37;10.85;;;;;;;-1.31;77.56;100579.97;1782561;79;20918;-65
2022/03/05 07:14:01;;;;;;;14.65;7.72;;;;;;;-1.32;77.35;100580.80;1785149;79;20899;-65
2022/03/05 07:16:27;;;;;;;14.73;8.07;;;;;;;-1.21;77.48;100579.24;1780165;79;21427;-66
2022/03/05 07:18:54;;;;;;;14.33;7.75;;;;;;;-1.07;76.86;100582.00;1781310;80;20956;-66
2022/03/05 07:21:21;;;;;;;13.77;7.00;;;;;;;-1.02;77.09;100579.52;1784592;80;20988;-66
2022/03/05 07:23:48;;;;;;;14.35;7.53;;;;;;;-1.07;76.73;100583.71;1784646;80;20886;-66
2022/03/05 07:26:17;;;;;;;16.80;7.60;;;;;;;-1.08;76.97;100579.44;1786980;79;20908;-65
2022/03/05 07:28:58;;;;;;;14.45;8.18;;;;;;;-0.72;77.94;100586.75;1782013;79;20989;-66
2022/03/05 07:31:25;;;;;;;10.53;5.50;;;;;;;-0.44;76.96;100582.80;1781205;79;20952;-65
2022/03/05 07:33:54;;;;;;;9.80;5.12;;;;;;;-0.40;76.81;100581.98;1784327;80;21866;-66
2022/03/05 07:36:22;;;;;;;11.05;5.33;;;;;;;-0.50;76.55;100580.17;1780789;79;21416;-67
2022/03/05 07:38:51;;;;;;;13.30;8.18;;;;;;;-0.65;76.10;100579.98;1781738;79;20946;-66
2022/03/05 07:41:19;;;;;;;11.80;6.33;;;;;;;-0.80;74.96;100589.21;1778727;80;20924;-66
2022/03/05 07:43:46;;;;;;;16.05;7.12;;;;;;;-0.90;75.49;100587.36;1781865;80;20898;-66
2022/03/05 07:46:13;;;;;;;;;;;;;;;-0.83;76.54;100596.86;1785364;79;21032;-66
2022/03/05 07:48:39;;;;;;;11.45;5.15;;;;;;;-0.62;76.33;100591.55;1777311;79;20155;-66
2022/03/05 07:51:06;;;;;;;10.15;4.78;;;;;;;-0.57;76.15;100591.19;1780294;80;21030;-67
2022/03/05 07:53:33;;;;;;;4.70;2.37;;;;;;;-0.49;76.61;100585.73;1783337;79;20969;-66
2022/03/05 07:56:00;;;;;;;4.35;2.10;;;;;;;-0.70;73.68;100587.21;1777701;79;21459;-67
2022/03/05 07:58:27;;;;;;;2.62;1.10;;;;;;;-0.84;74.03;100595.16;1782254;80;20974;-66
2022/03/05 08:00:53;;;;;;;1.95;1.20;;;;;;;-0.92;74.12;100583.94;1757744;80;21456;-66
2022/03/05 08:03:20;;;;;;;1.77;0.88;;;;;;;-1.02;73.75;100594.89;1755965;80;20911;-66
2022/03/05 08:05:47;;;;;;;2.80;0.90;;;;;;;-0.77;74.56;100591.81;1733561;80;20926;-66
2022/03/05 08:08:13;;;;;;;2.27;0.97;;;;;;;-0.50;74.50;100588.73;1768153;79;21992;-66
2022/03/05 08:10:40;;;;;;;2.45;1.00;;;;;;;-0.42;74.55;100600.37;1754773;80;21020;-66
2022/03/05 08:13:07;;;;;;;3.00;1.13;;;;;;;-0.50;74.84;100603.27;1756106;80;21605;-66
2022/03/05 08:15:33;;;;;;;1.35;0.90;;;;;;;-0.57;73.53;100598.89;1771503;80;20922;-66
2022/03/05 08:18:01;;;;;;;2.83;0.93;;;;;;;-0.69;74.05;100603.02;1782535;79;21468;-66
2022/03/05 08:20:30;;;;;;;3.25;1.20;;;;;;;-0.75;74.29;100605.52;1772418;79;20891;-66
2022/03/05 08:22:58;;;;;;;2.77;0.93;;;;;;;-0.72;75.02;100613.25;1777078;80;21165;-66
2022/03/05 08:25:26;;;;;;;1.75;0.93;;;;;;;-0.61;75.05;100606.13;1784634;80;21455;-66
2022/03/05 08:27:53;;;;;;;3.37;0.98;;;;;;;-0.44;75.23;100603.33;1759585;79;20894;-67
2022/03/05 08:30:20;;;;;;;2.37;0.72;;;;;;;-0.41;74.75;100603.36;1774862;79;20933;-63
2022/03/05 08:32:47;;;;;;;1.85;0.90;;;;;;;-0.44;74.36;100606.33;1789924;78;20917;-65
2022/03/05 08:35:15;;;;;;;2.17;0.60;;;;;;;-0.46;74.58;100605.01;1756058;80;21015;-66
2022/03/05 08:37:44;;;;;;;;;;;;;;;-0.31;74.62;100603.03;1751347;80;21403;-66
2022/03/05 08:40:13;;;;;;;2.15;0.78;;;;;;;0.00;74.86;100595.25;1756040;80;20116;-66
2022/03/05 08:42:43;;;;;;;3.42;0.80;;;;;;;0.25;74.93;100605.73;1776277;78;20855;-65
2022/03/05 08:45:10;;;;;;;2.08;0.62;;;;;;;0.23;71.47;100610.02;1768929;79;21025;-66
2022/03/05 08:47:37;;;;;;;;;;;;;;;0.21;72.24;100600.56;1778088;79;21809;-65
2022/03/05 08:50:06;;;;;;;1.70;0.72;;;;;;;0.26;72.59;100604.90;1775867;79;20163;-66
2022/03/05 08:52:41;;;;;;;3.02;0.80;;;;;;;0.38;73.86;100612.70;1774379;79;21395;-66
2022/03/05 08:55:09;;;;;;;1.90;0.60;;;;;;;0.47;73.78;100605.06;1771531;80;21381;-68
2022/03/05 08:57:36;;;;;;;2.27;0.80;;;;;;;0.55;73.48;100600.84;1769925;80;21454;-67
2022/03/05 09:00:07;;;;;;;2.25;0.98;;;;;;;0.69;73.10;100600.09;1771808;80;20893;-69
2022/03/05 09:02:34;;;;;;;0.82;0.53;;;;;;;0.79;73.42;100607.02;1770673;80;20948;-67
2022/03/05 09:05:01;;;;;;;1.70;0.57;;;;;;;0.92;73.40;100610.09;1771441;79;21716;-67
2022/03/05 09:07:28;;;;;;;0.55;0.50;;;;;;;1.03;73.31;100609.73;1770306;80;21207;-68
2022/03/05 09:09:55;;;;;;;2.80;0.60;;;;;;;1.07;71.81;100601.19;1774283;79;21004;-67
2022/03/05 09:12:23;;;;;;;3.10;0.75;;;;;;;1.18;72.38;100608.12;1774469;79;21052;-68
2022/03/05 09:14:49;;;;;;;1.52;0.47;;;;;;;1.10;70.09;100606.34;1769327;79;21446;-67
2022/03/05 09:17:17;;;;;;;0.93;0.55;;;;;;;1.03;70.95;100607.16;1765833;79;20942;-67
2022/03/05 09:19:43;;;;;;;1.98;0.88;;;;;;;0.96;70.27;100609.70;1775209;80;20944;-68
2022/03/05 09:22:10;;;;;;;2.65;0.80;;;;;;;0.69;70.09;100615.52;1774630;79;20936;-70
2022/03/05 09:24:38;;;;;;;2.37;1.00;;;;;;;0.63;70.10;100617.18;1771086;79;21894;-66
2022/03/05 09:27:06;;;;;;;3.50;1.15;;;;;;;0.73;71.11;100613.38;1733492;82;21046;-68
2022/03/05 09:29:32;;;;;;;2.77;1.20;;;;;;;0.79;69.13;100621.16;1736152;81;21499;-69
2022/03/05 09:32:00;;;;;;;1.27;0.70;;;;;;;0.69;69.41;100616.80;1727511;82;21482;-66
2022/03/05 09:34:27;;;;;;;1.57;0.65;;;;;;;0.84;70.13;100620.74;1733332;81;20947;-67
2022/03/05 09:36:56;;;;;;;;;;;;;;;0.81;70.71;100619.44;1743395;81;21087;-67
2022/03/05 09:39:23;;;;;;;4.20;1.00;;;;;;;0.68;69.85;100613.80;1739877;81;20224;-66
2022/03/05 09:41:50;;;;;;;;;;;;;;;0.68;70.61;100620.23;1742777;81;20856;-66
2022/03/05 09:44:17;;;;;;;3.83;0.90;;;;;;;0.80;71.12;100615.16;1739156;82;20105;-66
2022/03/05 09:46:44;;;;;;;2.10;1.00;;;;;;;0.83;70.84;100616.46;1742634;81;21112;-68
2022/03/05 09:49:11;;;;;;;;;;;;;;;0.73;70.81;100624.95;1734878;81;21123;-68
2022/03/05 09:51:38;;;;;;;1.72;1.02;;;;;;;0.82;71.00;100622.47;1710323;82;20118;-69
2022/03/05 09:54:05;;;;;;;1.63;0.73;;;;;;;0.79;69.17;100625.02;1737917;81;20932;-69
2022/03/05 09:56:32;;;;;;;1.60;0.80;;;;;;;0.56;69.28;100615.43;1726856;81;21452;-69
2022/03/05 09:58:58;;;;;;;2.40;0.65;;;;;;;0.44;69.99;100620.02;1738029;81;20906;-67
2022/03/05 10:01:25;;;;;;;1.70;0.70;;;;;;;0.34;68.91;100614.82;1733571;81;21865;-69
2022/03/05 10:04:01;;;;;;;3.40;0.90;;;;;;;0.20;67.77;100621.97;1736889;81;20904;-67
2022/03/05 10:06:29;;;;;;;3.07;1.10;;;;;;;0.18;69.31;100619.80;1733488;81;20897;-66
2022/03/05 10:08:56;;;;;;;2.55;0.90;;;;;;;0.20;70.00;100621.97;1731762;81;20940;-68
2022/03/05 10:11:25;;;;;;;2.80;0.88;;;;;;;0.33;70.10;100613.08;1739291;81;21803;-70
2022/03/05 10:13:52;;;;;;;2.90;1.00;;;;;;;0.31;70.11;100621.19;1716516;82;21041;-67
2022/03/05 10:16:29;;;;;;;1.43;0.80;;;;;;;0.28;69.91;100621.16;1732447;81;20936;-66
2022/03/05 10:18:58;;;;;;;2.20;0.85;;;;;;;0.18;69.24;100631.36;1740036;82;20934;-68
2022/03/05 10:21:32;;;;;;;1.90;0.85;;;;;;;0.29;69.92;100623.76;1710927;81;20993;-68
2022/03/05 10:24:08;;;;;;;2.45;0.90;;;;;;;0.36;69.71;100619.52;1770706;81;20967;-67
2022/03/05 10:26:56;;;;;;;1.80;0.88;;;;;;;0.33;69.73;100620.78;1765894;80;21085;-67
2022/03/05 10:29:34;;;;;;;3.22;1.00;;;;;;;0.44;69.27;100623.02;1761222;79;20907;-67
2022/03/05 10:32:05;;;;;;;1.98;0.98;;;;;;;0.40;67.80;100618.72;1760958;81;20880;-66
2022/03/05 10:34:51;;;;;;;3.58;1.12;;;;;;;0.31;67.33;100614.37;1766487;81;20919;-68
2022/03/05 10:37:23;;;;;;;1.32;1.00;;;;;;;0.31;68.08;100616.94;1765363;81;20903;-68
2022/03/05 10:39:51;;;;;;;3.90;1.10;;;;;;;0.47;67.46;100623.05;1767864;80;21002;-71
2022/03/05 10:42:23;;;;;;;1.47;0.82;;;;;;;0.71;68.60;100624.10;1766520;80;20954;-68
2022/03/05 10:45:03;;;;;;;2.55;1.02;;;;;;;0.72;65.68;100615.53;1769821;80;20919;-68
2022/03/05 10:47:46;;;;;;;2.50;0.62;;;;;;;0.53;67.09;100614.09;1768365;81;20978;-68
2022/03/05 10:50:23;;;;;;;3.30;1.20;;;;;;;0.61;68.03;100612.44;1770998;79;20962;-66
2022/03/05 10:53:01;;;;;;;3.27;1.20;;;;;;;0.63;67.12;100609.47;1777733;80;20981;-68
2022/03/05 10:55:36;;;;;;;2.30;1.05;;;;;;;0.55;66.34;100621.40;1775922;78;20946;-67
2022/03/05 10:58:17;;;;;;;3.80;1.07;;;;;;;0.66;67.93;100608.20;1768629;81;20943;-67
2022/03/05 11:00:49;;;;;;;2.87;1.10;;;;;;;0.79;67.60;100613.02;1763388;80;21598;-67
2022/03/05 11:03:18;;;;;;;3.58;1.22;;;;;;;0.87;67.13;100613.08;1764204;80;20887;-68
2022/03/05 11:05:45;;;;;;;5.83;1.30;;;;;;;1.08;68.74;100606.76;1764059;80;21061;-67
2022/03/05 11:08:17;;;;;;;;;;;;;;;1.26;68.80;100602.55;1771870;81;21504;-65
2022/03/05 11:10:48;;;;;;;1.37;0.95;;;;;;;1.41;68.69;100596.20;1739365;81;20238;-66
2022/03/05 11:13:15;;;;;;;2.65;1.25;;;;;;;1.42;68.25;100592.77;1759533;81;20862;-67
2022/03/05 11:15:44;;;;;;;2.85;1.20;;;;;;;1.33;68.24;100590.16;1768968;80;21005;-67
2022/03/05 11:18:10;;;;;;;2.98;1.20;;;;;;;1.17;67.76;100594.37;1771350;79;20917;-68
2022/03/05 11:20:38;;;;;;;2.85;1.10;;;;;;;1.00;67.75;100593.42;1776956;79;21448;-67
2022/03/05 11:23:05;;;;;;;3.40;1.00;;;;;;;1.01;68.28;100593.45;1778901;79;21464;-68
2022/03/05 11:25:40;;;;;;;3.75;1.40;;;;;;;1.00;68.04;100576.70;1781237;79;21472;-68
2022/03/05 11:28:08;;;;;;;3.62;1.35;;;;;;;1.01;68.08;100588.30;1778797;80;21483;-67
2022/03/05 11:30:44;;;;;;;2.95;1.10;;;;;;;1.06;68.16;100575.45;1774785;79;20972;-67
2022/03/05 11:33:14;;;;;;;2.37;1.10;;;;;;;1.08;68.04;100572.47;1747523;80;20982;-67